Time;durP1;ratioP1;P1;durP2;ratioP2;P2;SDS_P1;SDS_P2;PMS_P1;PMS_P2;Temp;Humidity;BMP_temperature;BMP_pressure;BME280_temperature;BME280_humidity;BME280_pressure;Samples;Min_cycle;Max_cycle;Signal;HPM_P1;HPM_P2
2021/08/30 00:00:32;;;;;;;6.80;4.80;;;;;;;13.29;87.67;96825.36;116164;1179;69133;-75
2021/08/30 00:03:05;;;;;;;5.80;4.50;;;;;;;13.29;87.75;96825.20;116210;1178;59590;-75
2021/08/30 00:05:34;;;;;;;6.00;4.20;;;;;;;13.28;87.88;96830.88;116169;1179;59565;-73
2021/08/30 00:08:04;;;;;;;7.70;5.00;;;;;;;13.28;87.70;96842.17;116138;1184;70355;-73
2021/08/30 00:10:34;;;;;;;8.30;4.80;;;;;;;13.30;87.61;96853.21;116199;1180;69165;-74
2021/08/30 00:13:03;;;;;;;7.50;4.90;;;;;;;13.22;88.14;96856.67;116186;1184;69206;-75
2021/08/30 00:15:32;;;;;;;8.90;5.50;;;;;;;13.21;87.96;96862.52;116169;1180;59557;-73
2021/08/30 00:18:02;;;;;;;7.50;5.40;;;;;;;13.23;87.92;96863.05;116219;1179;59547;-74
2021/08/30 00:20:31;;;;;;;10.10;5.60;;;;;;;13.22;88.00;96862.64;116191;1183;71348;-73
2021/08/30 00:23:01;;;;;;;8.70;5.60;;;;;;;13.19;88.21;96862.30;116169;1184;69149;-74
2021/08/30 00:25:33;;;;;;;7.50;5.30;;;;;;;13.15;88.58;96858.77;116156;1184;69264;-73
2021/08/30 00:28:03;;;;;;;5.40;4.40;;;;;;;13.14;88.95;96857.23;116201;1184;59486;-74
2021/08/30 00:30:34;;;;;;;8.10;5.80;;;;;;;13.14;88.75;96865.23;116234;1184;59520;-75
2021/08/30 00:33:04;;;;;;;10.40;6.20;;;;;;;13.19;88.54;96869.08;116181;1184;71421;-78
2021/08/30 00:35:34;;;;;;;10.10;6.50;;;;;;;13.20;88.44;96874.48;116169;1184;68891;-77
2021/08/30 00:38:04;;;;;;;8.00;6.20;;;;;;;13.17;88.47;96873.48;116167;1179;67653;-75
2021/08/30 00:40:36;;;;;;;7.20;5.40;;;;;;;13.15;88.60;96868.84;116179;1184;59569;-74
2021/08/30 00:43:07;;;;;;;7.50;4.50;;;;;;;13.15;88.57;96868.46;116165;1179;59524;-73
2021/08/30 00:45:36;;;;;;;;;;;;;;;13.14;88.73;96866.84;116267;1184;69829;-76
2021/08/30 00:48:07;;;;;;;9.20;5.90;;;;;;;13.14;88.52;96871.84;116212;1184;69131;-77
2021/08/30 00:50:37;;;;;;;7.50;5.90;;;;;;;13.13;88.65;96869.44;116192;1180;69207;-80
2021/08/30 00:53:07;;;;;;;9.60;5.50;;;;;;;13.12;88.69;96862.34;116184;1184;59531;-76
2021/08/30 00:55:36;;;;;;;13.40;5.80;;;;;;;13.13;88.38;96855.04;116140;1179;59525;-75
2021/08/30 00:58:07;;;;;;;8.10;5.70;;;;;;;13.14;88.11;96845.21;116137;1183;71376;-75
2021/08/30 01:00:37;;;;;;;7.90;5.30;;;;;;;13.14;88.20;96842.23;116223;1183;68354;-77
2021/08/30 01:03:09;;;;;;;8.00;5.30;;;;;;;13.12;88.95;96849.36;116200;1183;68419;-74
2021/08/30 01:05:44;;;;;;;6.80;5.20;;;;;;;13.12;88.87;96849.23;116204;1180;59459;-77
2021/08/30 01:08:29;;;;;;;8.20;5.40;;;;;;;13.11;88.51;96842.70;116191;1182;59506;-78
2021/08/30 01:11:14;;;;;;;8.80;5.40;;;;;;;13.09;88.78;96838.30;116185;1179;70603;-73
2021/08/30 01:13:46;;;;;;;7.40;5.20;;;;;;;13.07;88.95;96836.09;116190;1180;69123;-75
2021/08/30 01:16:18;;;;;;;6.90;5.10;;;;;;;13.05;88.54;96833.11;116195;1179;68580;-77
2021/08/30 01:18:51;;;;;;;8.00;5.40;;;;;;;13.03;88.50;96834.88;116238;1181;59619;-73
2021/08/30 01:21:34;;;;;;;7.40;5.50;;;;;;;13.01;88.32;96832.33;116220;1182;59542;-73
2021/08/30 01:24:07;;;;;;;8.40;5.00;;;;;;;12.98;88.46;96838.89;116168;1184;71312;-77
2021/08/30 01:26:55;;;;;;;9.70;5.00;;;;;;;12.97;88.78;96845.48;116184;1184;69101;-75
2021/08/30 01:29:33;;;;;;;8.40;5.10;;;;;;;12.94;88.65;96846.73;116135;1184;69429;-76
2021/08/30 01:32:11;;;;;;;9.00;5.70;;;;;;;12.93;88.94;96854.73;116062;1180;59601;-75
2021/08/30 01:34:42;;;;;;;11.10;7.60;;;;;;;12.92;88.55;96859.35;116201;1181;59605;-73
2021/08/30 01:37:12;;;;;;;14.90;7.90;;;;;;;12.90;88.71;96859.46;116208;1184;70369;-77
2021/08/30 01:39:44;;;;;;;12.60;7.80;;;;;;;12.84;88.99;96856.48;116177;1184;67434;-76
2021/08/30 01:42:14;;;;;;;13.70;7.90;;;;;;;12.84;89.15;96848.09;116122;1184;68890;-75
2021/08/30 01:44:45;;;;;;;11.90;7.40;;;;;;;12.84;89.47;96834.35;116114;1179;59959;-77
2021/08/30 01:47:16;;;;;;;11.00;7.80;;;;;;;12.83;89.39;96827.88;116190;1182;59539;-74
2021/08/30 01:49:59;;;;;;;10.10;8.10;;;;;;;12.83;89.14;96833.77;116136;1179;71162;-78
2021/08/30 01:52:39;;;;;;;11.40;6.90;;;;;;;12.82;89.43;96854.46;116154;1184;67616;-80
2021/08/30 02:00:45;;;;;;;10.90;7.80;;;;;;;12.82;89.04;96854.21;116174;1184;59533;-74
2021/08/30 02:03:30;;;;;;;9.70;7.30;;;;;;;12.83;89.68;96846.47;116197;1184;71353;-77
2021/08/30 02:06:05;;;;;;;15.70;7.90;;;;;;;12.84;90.29;96851.24;116225;1183;69181;-75
2021/08/30 02:08:36;;;;;;;12.80;6.70;;;;;;;12.85;89.77;96860.09;116165;1184;68438;-76
2021/08/30 02:11:09;;;;;;;10.30;7.00;;;;;;;12.85;89.54;96860.73;116150;1184;59524;-76
2021/08/30 02:13:40;;;;;;;15.70;7.20;;;;;;;12.82;89.87;96864.31;116170;1184;59564;-73
2021/08/30 02:16:09;;;;;;;12.50;7.00;;;;;;;12.82;89.67;96863.73;116090;1184;71367;-74
2021/08/30 02:18:45;;;;;;;14.60;7.80;;;;;;;12.82;89.77;96864.68;116152;1184;68343;-75
2021/08/30 02:21:20;;;;;;;13.10;7.90;;;;;;;12.82;89.59;96862.30;116140;1184;69253;-73
2021/08/30 02:24:18;;;;;;;11.30;8.50;;;;;;;12.81;89.65;96865.05;116097;1184;59536;-75
2021/08/30 02:26:54;;;;;;;11.70;9.10;;;;;;;12.82;89.57;96868.11;116190;1180;59552;-75
2021/08/30 02:29:29;;;;;;;16.50;10.30;;;;;;;12.83;89.54;96873.69;116244;1184;71346;-78
2021/08/30 02:32:03;;;;;;;15.80;9.80;;;;;;;12.81;89.61;96871.38;116202;1184;68412;-74
2021/08/30 02:34:36;;;;;;;16.20;11.30;;;;;;;12.82;89.58;96870.80;116231;1184;69273;-74
2021/08/30 02:37:08;;;;;;;13.60;10.30;;;;;;;12.83;89.32;96867.37;116195;1182;59509;-76
2021/08/30 02:39:42;;;;;;;14.50;11.50;;;;;;;12.84;89.28;96868.41;116051;1182;59531;-74
2021/08/30 02:42:12;;;;;;;17.90;10.50;;;;;;;12.85;89.53;96863.43;116255;1183;71061;-75
2021/08/30 02:44:43;;;;;;;18.10;11.40;;;;;;;12.83;89.43;96864.24;116258;1182;69223;-73
2021/08/30 02:47:14;;;;;;;15.00;10.60;;;;;;;12.84;89.69;96857.54;116235;1184;68311;-76
2021/08/30 02:49:44;;;;;;;;;;;;;;;12.83;89.64;96853.54;116203;1182;59567;-74
2021/08/30 02:52:15;;;;;;;;;;;;;;;12.81;89.58;96848.88;116243;1184;59541;-74
2021/08/30 02:54:47;;;;;;;12.30;9.80;;;;;;;12.78;90.12;96860.59;116212;1180;71346;-75
2021/08/30 02:57:18;;;;;;;14.00;10.40;;;;;;;12.77;90.01;96864.96;116231;1184;69216;-79
2021/08/30 02:59:51;;;;;;;15.30;10.90;;;;;;;12.76;89.70;96866.66;116186;1183;68259;-74
2021/08/30 03:02:22;;;;;;;15.90;11.90;;;;;;;12.76;89.49;96871.59;116213;1179;59555;-74
2021/08/30 03:04:54;;;;;;;17.10;12.80;;;;;;;12.75;89.27;96872.95;116270;1184;59552;-79
2021/08/30 03:07:28;;;;;;;15.80;11.70;;;;;;;12.76;89.20;96868.42;116254;1184;70556;-79
2021/08/30 03:09:59;;;;;;;19.70;12.00;;;;;;;12.76;89.01;96870.55;116135;1181;69150;-73
2021/08/30 03:12:36;;;;;;;15.60;12.40;;;;;;;12.76;88.89;96876.41;116245;1184;69230;-73
2021/08/30 03:15:11;;;;;;;15.50;12.40;;;;;;;12.76;88.85;96871.89;116198;1184;59505;-79
2021/08/30 03:17:44;;;;;;;13.60;11.50;;;;;;;12.75;88.80;96872.55;116223;1179;59540;-77
2021/08/30 03:20:23;;;;;;;16.20;10.60;;;;;;;12.75;88.85;96879.00;116246;1183;71356;-73
2021/08/30 03:22:56;;;;;;;16.50;12.20;;;;;;;12.76;88.68;96880.30;116281;1183;68428;-76
2021/08/30 03:25:31;;;;;;;14.60;12.20;;;;;;;12.77;88.44;96879.70;116017;1182;69227;-76
2021/08/30 03:28:11;;;;;;;19.30;13.70;;;;;;;12.77;88.79;96876.73;116101;1182;59542;-73
2021/08/30 03:30:41;;;;;;;22.30;13.80;;;;;;;12.76;88.74;96875.36;116196;1182;59568;-74
2021/08/30 03:33:11;;;;;;;21.30;14.60;;;;;;;12.76;88.71;96880.70;116185;1181;70461;-79
2021/08/30 03:35:42;;;;;;;22.90;14.90;;;;;;;12.75;88.85;96879.87;116184;1184;68423;-74
2021/08/30 03:38:12;;;;;;;19.90;14.40;;;;;;;12.76;88.75;96884.74;116214;1184;69207;-77
2021/08/30 03:40:44;;;;;;;18.50;12.80;;;;;;;12.77;88.71;96889.01;116154;1181;59495;-77
2021/08/30 03:43:14;;;;;;;15.00;12.50;;;;;;;12.77;89.11;96893.45;116227;1184;59895;-74
2021/08/30 03:45:44;;;;;;;15.50;12.90;;;;;;;12.77;88.97;96896.79;116166;1184;70605;-77
2021/08/30 03:48:14;;;;;;;12.30;10.00;;;;;;;12.78;88.74;96904.98;116211;1182;68363;-74
2021/08/30 03:50:45;;;;;;;20.70;14.60;;;;;;;12.75;89.75;96911.15;116178;1182;69202;-75
2021/08/30 03:53:18;;;;;;;19.20;14.60;;;;;;;12.75;89.73;96910.20;116224;1184;59523;-75
2021/08/30 03:55:49;;;;;;;20.60;15.00;;;;;;;12.77;89.29;96910.52;116182;1181;59550;-78
2021/08/30 03:58:20;;;;;;;16.40;13.90;;;;;;;12.79;88.96;96913.35;116166;1184;71293;-75
2021/08/30 04:00:49;;;;;;;;;;;;;;;12.82;88.80;96912.56;116198;1184;69118;-77
2021/08/30 04:03:20;;;;;;;12.70;10.90;;;;;;;12.83;88.99;96911.54;116160;1184;68474;-74
2021/08/30 04:05:51;;;;;;;16.10;11.20;;;;;;;12.86;88.96;96917.52;116162;1184;59554;-75
2021/08/30 04:08:20;;;;;;;14.80;11.10;;;;;;;12.87;89.20;96922.38;116165;1184;59528;-73
2021/08/30 04:10:50;;;;;;;16.10;10.80;;;;;;;12.88;89.15;96922.51;116145;1184;70807;-81
2021/08/30 04:13:19;;;;;;;17.70;11.90;;;;;;;12.89;88.96;96924.29;116166;1184;68511;-75
2021/08/30 04:15:49;;;;;;;20.30;13.60;;;;;;;12.91;88.94;96923.02;116152;1179;69206;-78
2021/08/30 04:18:18;;;;;;;16.10;13.30;;;;;;;12.92;89.17;96927.15;116184;1184;59511;-75
2021/08/30 04:20:48;;;;;;;18.30;13.80;;;;;;;12.94;89.16;96929.70;116196;1184;59488;-75
2021/08/30 04:23:17;;;;;;;19.60;14.40;;;;;;;12.95;89.02;96925.52;116247;1183;71864;-80
2021/08/30 04:25:47;;;;;;;18.80;14.50;;;;;;;12.99;88.93;96934.86;116223;1179;68422;-75
2021/08/30 04:28:16;;;;;;;15.70;13.40;;;;;;;13.03;88.76;96932.31;116240;1183;69180;-78
2021/08/30 04:30:45;;;;;;;17.50;12.40;;;;;;;13.07;88.62;96936.18;116197;1184;59558;-77
2021/08/30 04:33:16;;;;;;;20.10;12.90;;;;;;;13.10;88.70;96935.80;116230;1182;59519;-76
2021/08/30 04:35:45;;;;;;;16.80;13.20;;;;;;;13.14;88.76;96940.87;116193;1183;71464;-77
2021/08/30 04:38:14;;;;;;;21.60;15.50;;;;;;;13.17;88.70;96945.40;116210;1183;69188;-79
2021/08/30 04:40:45;;;;;;;16.50;11.90;;;;;;;13.17;89.02;96945.10;116207;1184;68410;-76
2021/08/30 04:43:14;;;;;;;17.20;12.60;;;;;;;13.17;89.21;96946.77;116202;1184;59551;-80
2021/08/30 04:45:43;;;;;;;14.10;10.20;;;;;;;13.19;88.87;96948.10;116282;1181;59533;-76
2021/08/30 04:48:14;;;;;;;13.60;10.30;;;;;;;13.19;88.76;96949.91;116205;1184;70714;-78
2021/08/30 04:50:44;;;;;;;12.60;8.30;;;;;;;13.19;88.66;96952.64;116201;1184;69200;-79
2021/08/30 04:53:13;;;;;;;11.50;8.50;;;;;;;13.22;88.69;96952.06;116249;1184;68399;-80
2021/08/30 04:55:42;;;;;;;15.90;8.00;;;;;;;13.26;88.47;96950.03;116206;1183;59538;-77
2021/08/30 04:58:12;;;;;;;11.10;8.10;;;;;;;13.32;88.30;96949.98;116174;1184;59554;-75
2021/08/30 05:00:41;;;;;;;11.20;8.30;;;;;;;13.36;88.08;96952.30;116280;1183;71157;-80
2021/08/30 05:03:10;;;;;;;11.90;8.10;;;;;;;13.44;88.06;96953.23;116234;1183;69032;-79
2021/08/30 05:05:40;;;;;;;11.40;7.50;;;;;;;13.52;87.83;96947.80;116241;1184;69226;-80
2021/08/30 05:08:09;;;;;;;12.60;8.30;;;;;;;13.59;87.59;96944.82;116249;1179;59542;-76
2021/08/30 05:10:38;;;;;;;16.30;8.60;;;;;;;13.71;87.51;96946.48;116275;1184;59548;-79
2021/08/30 05:13:07;;;;;;;10.20;7.90;;;;;;;13.82;87.17;96949.96;116234;1179;71154;-78
2021/08/30 05:15:37;;;;;;;10.30;6.90;;;;;;;13.92;86.95;96952.10;116263;1183;69163;-75
2021/08/30 05:18:06;;;;;;;10.10;5.50;;;;;;;14.10;86.67;96953.66;116224;1184;69044;-74
2021/08/30 05:20:36;;;;;;;10.20;6.10;;;;;;;14.39;86.02;96948.41;116272;1181;59519;-74
2021/08/30 05:23:06;;;;;;;7.90;5.40;;;;;;;14.66;84.95;96944.31;116311;1179;59537;-78
2021/08/30 05:25:35;;;;;;;7.90;5.90;;;;;;;14.86;84.14;96941.36;116246;1183;70579;-79
2021/08/30 05:28:04;;;;;;;9.30;6.10;;;;;;;15.01;83.20;96939.19;116048;1185;69260;-75
2021/08/30 05:30:33;;;;;;;9.70;5.00;;;;;;;15.20;83.73;96935.69;116244;1179;69012;-79
2021/08/30 05:33:04;;;;;;;11.30;5.60;;;;;;;15.36;81.66;96937.02;116249;1184;59489;-78
2021/08/30 05:35:33;;;;;;;5.80;4.00;;;;;;;15.68;80.88;96943.82;116295;1182;59504;-78
2021/08/30 05:38:02;;;;;;;7.00;4.00;;;;;;;16.17;80.73;96943.71;116188;1184;71985;-77
2021/08/30 05:40:32;;;;;;;7.20;3.70;;;;;;;16.63;79.00;96947.70;116252;1183;69022;-75
2021/08/30 05:43:01;;;;;;;6.10;3.70;;;;;;;16.75;75.99;96950.77;116241;1183;69064;-77
2021/08/30 05:45:33;;;;;;;6.60;3.60;;;;;;;16.63;75.02;96953.59;116264;1179;59534;-79
2021/08/30 05:48:02;;;;;;;5.90;3.60;;;;;;;16.53;75.04;96953.64;116253;1179;59608;-76
2021/08/30 05:50:32;;;;;;;8.90;3.70;;;;;;;16.61;76.50;96954.89;116286;1179;71165;-72
2021/08/30 05:53:01;;;;;;;5.80;3.60;;;;;;;16.68;76.27;96957.77;116248;1182;69017;-75
2021/08/30 05:55:30;;;;;;;7.70;3.80;;;;;;;16.84;75.99;96954.98;116288;1183;69473;-76
2021/08/30 05:57:59;;;;;;;4.70;3.20;;;;;;;16.94;74.75;96959.66;116234;1181;59538;-80
2021/08/30 06:00:28;;;;;;;6.10;3.50;;;;;;;16.98;73.83;96958.31;116224;1183;59520;-79
2021/08/30 06:02:57;;;;;;;6.90;3.80;;;;;;;16.82;73.18;96954.35;116195;1184;71145;-72
2021/08/30 06:05:27;;;;;;;5.50;3.50;;;;;;;16.86;73.64;96958.41;116280;1184;69463;-79
2021/08/30 06:08:01;;;;;;;6.00;3.40;;;;;;;16.87;73.88;96961.42;116242;1184;69298;-79
2021/08/30 06:10:30;;;;;;;8.70;3.90;;;;;;;16.79;74.29;96959.86;116085;1181;59545;-74
2021/08/30 06:12:59;;;;;;;8.50;3.40;;;;;;;16.70;74.62;96965.16;116234;1183;59482;-76
2021/08/30 06:15:28;;;;;;;5.10;3.50;;;;;;;16.62;74.54;96961.04;116224;1180;70536;-77
2021/08/30 06:17:57;;;;;;;7.00;4.00;;;;;;;16.51;74.28;96964.83;116199;1183;69156;-78
2021/08/30 06:20:27;;;;;;;5.90;3.90;;;;;;;16.49;74.78;96966.02;116223;1183;68387;-75
2021/08/30 06:22:55;;;;;;;6.60;4.20;;;;;;;16.58;74.76;96961.66;116205;1184;59569;-76
2021/08/30 06:25:25;;;;;;;7.00;3.70;;;;;;;16.49;73.65;96959.56;116281;1184;59561;-79
2021/08/30 06:27:58;;;;;;;11.70;3.90;;;;;;;16.88;73.51;96958.38;116288;1183;70377;-75
2021/08/30 06:30:27;;;;;;;9.10;3.90;;;;;;;17.43;71.77;96955.73;116174;1181;68980;-77
2021/08/30 06:32:56;;;;;;;5.30;3.90;;;;;;;17.93;71.20;96953.38;116261;1183;69021;-78
2021/08/30 06:35:25;;;;;;;7.40;4.20;;;;;;;18.26;68.67;96954.00;116222;1180;59501;-73
2021/08/30 06:37:54;;;;;;;7.40;4.30;;;;;;;18.82;68.40;96952.40;116205;1182;59532;-73
2021/08/30 06:40:24;;;;;;;10.00;3.90;;;;;;;19.36;64.89;96952.19;116244;1183;70683;-78
2021/08/30 06:42:53;;;;;;;6.30;3.60;;;;;;;19.38;63.42;96953.36;116023;1181;69196;-79
2021/08/30 06:45:23;;;;;;;6.10;3.60;;;;;;;19.01;63.49;96952.88;116125;1184;68480;-75
2021/08/30 06:47:52;;;;;;;;;;;;;;;19.43;64.99;96949.33;116281;1183;59560;-73
2021/08/30 06:50:22;;;;;;;4.40;3.40;;;;;;;19.56;63.52;96956.34;116062;1184;59624;-75
2021/08/30 06:52:53;;;;;;;8.10;3.90;;;;;;;19.22;62.18;96955.66;116240;1184;69942;-78
2021/08/30 06:55:22;;;;;;;5.20;3.30;;;;;;;19.25;62.16;96951.52;116323;1181;68986;-76
2021/08/30 06:57:51;;;;;;;4.00;3.40;;;;;;;19.23;62.43;96953.77;116207;1184;69067;-75
2021/08/30 07:00:20;;;;;;;5.80;3.50;;;;;;;19.42;62.13;96952.29;116254;1183;59546;-72
2021/08/30 07:02:49;;;;;;;6.50;3.40;;;;;;;19.41;61.71;96950.30;116249;1179;59536;-75
2021/08/30 07:05:19;;;;;;;5.40;3.80;;;;;;;19.07;62.00;96953.45;116297;1184;70591;-76
2021/08/30 07:07:48;;;;;;;4.80;3.40;;;;;;;18.50;63.56;96955.41;116250;1183;68471;-75
2021/08/30 07:10:18;;;;;;;5.90;3.60;;;;;;;18.19;64.07;96962.23;116246;1180;69328;-73
2021/08/30 07:12:47;;;;;;;4.90;3.50;;;;;;;18.07;63.33;96963.90;116246;1182;59560;-74
2021/08/30 07:15:16;;;;;;;5.50;3.50;;;;;;;17.85;63.95;96965.05;116252;1183;59563;-80
2021/08/30 07:17:45;;;;;;;7.10;3.80;;;;;;;18.13;64.88;96968.05;116257;1183;70763;-73
2021/08/30 07:20:15;;;;;;;5.10;3.40;;;;;;;18.76;64.56;96965.98;116211;1179;69099;-73
2021/08/30 07:22:44;;;;;;;5.10;3.40;;;;;;;19.56;60.26;96963.23;116245;1184;69053;-73
2021/08/30 07:25:14;;;;;;;4.20;3.20;;;;;;;19.81;58.89;96964.66;116188;1181;59540;-77
2021/08/30 07:27:43;;;;;;;5.00;2.90;;;;;;;19.58;58.64;96966.53;116272;1184;59466;-72
2021/08/30 07:30:12;;;;;;;6.30;3.40;;;;;;;19.73;58.38;96969.65;116238;1184;71223;-78
2021/08/30 07:32:41;;;;;;;4.80;3.40;;;;;;;19.70;57.65;96974.14;116257;1179;68666;-75
2021/08/30 07:35:10;;;;;;;6.70;3.80;;;;;;;20.12;58.00;96976.66;116219;1183;68449;-74
2021/08/30 07:37:39;;;;;;;6.50;3.90;;;;;;;20.23;58.24;96981.68;116242;1183;59597;-74
2021/08/30 07:40:09;;;;;;;5.00;3.30;;;;;;;20.00;59.61;96977.05;116194;1184;59562;-78
2021/08/30 07:42:38;;;;;;;5.50;3.60;;;;;;;20.12;58.90;96977.12;116301;1184;71171;-80
2021/08/30 07:45:08;;;;;;;6.20;3.70;;;;;;;19.69;60.03;96978.95;116242;1179;68282;-74
2021/08/30 07:47:40;;;;;;;7.80;3.70;;;;;;;19.48;59.28;96982.92;116233;1179;69558;-74
2021/08/30 07:50:11;;;;;;;7.80;3.70;;;;;;;18.93;61.35;96978.87;116256;1183;59543;-77
2021/08/30 07:52:40;;;;;;;7.20;3.70;;;;;;;18.94;62.25;96985.83;116272;1183;59565;-78
2021/08/30 07:55:09;;;;;;;6.30;3.70;;;;;;;19.30;60.11;96990.41;116290;1183;71942;-76
2021/08/30 07:57:38;;;;;;;5.30;3.70;;;;;;;19.38;59.84;96987.67;116280;1184;69133;-78
2021/08/30 08:00:08;;;;;;;4.40;3.30;;;;;;;19.27;60.11;96991.39;116246;1184;67568;-80
2021/08/30 08:02:40;;;;;;;4.20;3.40;;;;;;;19.50;59.42;96993.65;116236;1184;59525;-73
2021/08/30 08:05:10;;;;;;;5.40;3.60;;;;;;;19.79;58.89;96995.64;116224;1182;59501;-77
2021/08/30 08:07:40;;;;;;;;;;;;;;;20.13;58.55;96992.96;116275;1183;71441;-72
2021/08/30 08:10:09;;;;;;;5.70;4.20;;;;;;;20.52;57.42;96992.23;116292;1184;68456;-74
2021/08/30 08:12:38;;;;;;;6.10;4.00;;;;;;;20.66;55.73;96994.30;116151;1180;68973;-75
2021/08/30 08:15:08;;;;;;;5.00;3.70;;;;;;;20.31;56.35;96988.20;116253;1181;59577;-76
2021/08/30 08:17:37;;;;;;;5.00;3.70;;;;;;;20.09;57.26;96986.79;116261;1183;59533;-75
2021/08/30 08:20:06;;;;;;;5.80;3.70;;;;;;;19.78;58.28;96992.46;116293;1179;71468;-76
2021/08/30 08:22:43;;;;;;;6.40;3.40;;;;;;;19.45;58.25;96993.04;116250;1183;68466;-75
2021/08/30 08:25:12;;;;;;;;;;;;;;;19.28;58.93;96995.88;116238;1183;69572;-73
2021/08/30 08:27:42;;;;;;;7.30;3.90;;;;;;;19.33;59.24;96991.89;116228;1184;59542;-73
2021/08/30 08:30:11;;;;;;;6.30;4.20;;;;;;;19.55;57.68;96990.48;116250;1179;59549;-75
2021/08/30 08:32:41;;;;;;;5.20;3.30;;;;;;;19.76;57.29;96993.18;116235;1184;71197;-75
2021/08/30 08:35:11;;;;;;;3.30;2.90;;;;;;;19.98;57.12;96994.63;116263;1184;68568;-73
2021/08/30 08:37:40;;;;;;;5.60;3.10;;;;;;;20.16;57.10;96996.12;116256;1184;68252;-74
2021/08/30 08:40:09;;;;;;;6.20;3.00;;;;;;;20.32;55.32;96994.59;116119;1182;59528;-75
2021/08/30 08:42:40;;;;;;;7.40;3.60;;;;;;;20.27;55.02;96992.25;116220;1181;59536;-73
2021/08/30 08:45:12;;;;;;;5.50;3.30;;;;;;;20.09;54.82;96989.09;116322;1183;71390;-74
2021/08/30 08:47:42;;;;;;;6.10;3.30;;;;;;;20.10;54.05;96991.64;116196;1179;70317;-74
2021/08/30 08:50:13;;;;;;;;;;;;;;;19.90;54.26;96992.96;116181;1184;69260;-74
2021/08/30 08:52:43;;;;;;;4.40;2.40;;;;;;;19.85;54.69;96991.75;116283;1179;59519;-74
2021/08/30 08:55:13;;;;;;;;;;;;;;;20.31;54.79;96988.88;116283;1183;59634;-73
2021/08/30 08:57:43;;;;;;;3.00;2.30;;;;;;;20.54;53.64;96994.68;116289;1184;70675;-73
2021/08/30 09:00:14;;;;;;;3.50;2.00;;;;;;;20.60;54.85;96994.14;116248;1184;68547;-73
2021/08/30 09:02:44;;;;;;;3.60;1.90;;;;;;;20.38;54.37;96998.88;116260;1183;69770;-72
2021/08/30 09:05:24;;;;;;;1.80;1.70;;;;;;;19.95;53.90;97001.43;116257;1184;59546;-73
2021/08/30 09:07:54;;;;;;;3.00;2.00;;;;;;;19.78;54.17;96999.62;116014;1184;59549;-72
2021/08/30 09:10:26;;;;;;;2.40;1.90;;;;;;;19.35;56.45;97000.52;116273;1179;71535;-75
2021/08/30 09:13:06;;;;;;;6.80;2.40;;;;;;;19.35;57.37;96995.58;116123;1184;68693;-72
2021/08/30 09:15:40;;;;;;;3.40;2.10;;;;;;;19.45;57.15;96993.94;116224;1184;69207;-74
2021/08/30 09:18:11;;;;;;;5.10;2.60;;;;;;;19.58;56.97;96995.69;116151;1181;59533;-73
2021/08/30 09:20:40;;;;;;;2.70;2.40;;;;;;;19.54;57.42;96994.45;116284;1180;59510;-75
2021/08/30 09:23:15;;;;;;;5.80;2.40;;;;;;;19.98;55.72;96998.20;116273;1184;71452;-74
2021/08/30 09:25:45;;;;;;;4.10;2.40;;;;;;;19.92;54.56;97002.88;116277;1184;68928;-75
2021/08/30 09:28:14;;;;;;;4.50;2.20;;;;;;;19.65;55.78;97003.01;116257;1183;68433;-74
2021/08/30 09:30:51;;;;;;;3.30;2.50;;;;;;;19.89;56.28;97000.72;116271;1183;59552;-73
2021/08/30 09:33:20;;;;;;;6.50;2.80;;;;;;;20.17;55.06;97001.27;116157;1184;59564;-74
2021/08/30 09:35:59;;;;;;;5.00;2.90;;;;;;;20.16;54.67;97004.44;116229;1183;70602;-74
2021/08/30 09:38:37;;;;;;;3.20;2.80;;;;;;;19.94;55.72;97005.66;116255;1184;68445;-74
2021/08/30 09:41:11;;;;;;;5.20;2.90;;;;;;;19.74;56.20;97001.56;116146;1183;68251;-75
2021/08/30 09:43:39;;;;;;;7.20;2.70;;;;;;;20.00;54.88;96999.84;116327;1179;59834;-72
2021/08/30 09:46:08;;;;;;;3.40;2.70;;;;;;;20.55;54.00;97008.42;116295;1179;59533;-73
2021/08/30 09:48:43;;;;;;;5.20;2.90;;;;;;;20.90;53.31;97006.27;116083;1182;71291;-74
2021/08/30 09:51:13;;;;;;;4.50;3.40;;;;;;;21.10;52.12;97008.55;116291;1183;68558;-74
2021/08/30 09:53:43;;;;;;;4.30;2.90;;;;;;;20.98;51.63;97012.88;116274;1183;68645;-74
2021/08/30 09:56:12;;;;;;;3.90;2.50;;;;;;;21.06;51.54;97010.27;116280;1180;59545;-74
2021/08/30 09:58:43;;;;;;;3.80;2.60;;;;;;;21.44;50.23;97008.73;116114;1183;59571;-73
2021/08/30 10:01:12;;;;;;;4.90;2.90;;;;;;;21.37;50.43;97006.90;116218;1183;71364;-79
2021/08/30 10:03:43;;;;;;;7.00;2.80;;;;;;;21.13;49.96;97007.83;116267;1182;68420;-76
2021/08/30 10:06:12;;;;;;;5.80;3.50;;;;;;;20.83;51.31;97004.87;116091;1181;69085;-76
2021/08/30 10:08:41;;;;;;;7.00;4.40;;;;;;;20.63;51.62;97005.07;116280;1180;59565;-74
2021/08/30 10:11:10;;;;;;;6.10;3.90;;;;;;;20.40;52.01;97003.15;116327;1179;59526;-75
2021/08/30 10:13:41;;;;;;;5.70;4.10;;;;;;;20.20;52.55;97005.25;116194;1183;70626;-74
2021/08/30 10:16:11;;;;;;;6.70;4.40;;;;;;;19.91;52.99;97005.98;116270;1178;69132;-74
2021/08/30 10:18:48;;;;;;;5.40;4.10;;;;;;;19.48;54.79;97002.42;116255;1179;68404;-74
2021/08/30 10:21:19;;;;;;;7.40;3.40;;;;;;;19.24;55.58;97000.31;116337;1183;59555;-73
2021/08/30 10:23:49;;;;;;;5.70;3.60;;;;;;;19.35;54.73;96999.75;116338;1183;59488;-74
2021/08/30 10:26:18;;;;;;;6.70;3.30;;;;;;;19.10;54.51;96999.29;116284;1184;70386;-73
2021/08/30 10:28:48;;;;;;;5.40;3.50;;;;;;;19.21;54.97;97000.52;116300;1179;67769;-75
2021/08/30 10:31:23;;;;;;;7.30;3.00;;;;;;;19.39;55.00;97003.23;116109;1181;69980;-73
2021/08/30 10:33:54;;;;;;;6.70;3.20;;;;;;;19.61;53.44;97004.79;116293;1183;59553;-76
2021/08/30 10:36:27;;;;;;;5.10;3.20;;;;;;;19.67;53.36;97004.63;116310;1182;59536;-74
2021/08/30 10:39:08;;;;;;;4.70;3.10;;;;;;;19.87;52.75;97004.91;116343;1180;71764;-74
2021/08/30 10:41:40;;;;;;;6.50;3.70;;;;;;;19.76;52.22;97006.88;116309;1178;67328;-74
2021/08/30 10:44:15;;;;;;;5.60;3.70;;;;;;;19.93;51.95;97007.46;116295;1183;69012;-74
2021/08/30 10:46:50;;;;;;;6.90;3.40;;;;;;;19.98;51.87;97010.36;116045;1184;59539;-77
2021/08/30 10:49:30;;;;;;;3.30;2.70;;;;;;;19.98;50.60;97010.61;116320;1183;59475;-75
2021/08/30 10:52:06;;;;;;;4.60;2.70;;;;;;;20.68;49.74;97017.10;116274;1183;70604;-74
2021/08/30 10:54:35;;;;;;;4.60;2.70;;;;;;;21.53;47.27;97013.38;116227;1178;68545;-75
2021/08/30 10:57:04;;;;;;;4.00;2.60;;;;;;;21.87;46.76;97014.02;116237;1183;68439;-75
2021/08/30 10:59:33;;;;;;;5.90;2.50;;;;;;;22.37;46.48;97012.48;116303;1180;59552;-76
2021/08/30 11:02:03;;;;;;;2.80;2.30;;;;;;;23.03;43.84;97011.13;116298;1182;59552;-74
2021/08/30 11:04:37;;;;;;;5.40;2.50;;;;;;;23.64;43.70;97010.55;116329;1183;71007;-75
2021/08/30 11:07:07;;;;;;;5.30;2.60;;;;;;;24.59;41.97;97005.27;116295;1183;68412;-76
2021/08/30 11:09:45;;;;;;;3.70;2.30;;;;;;;25.44;39.71;97005.65;116299;1183;69107;-73
2021/08/30 11:12:14;;;;;;;4.10;2.40;;;;;;;26.03;38.07;97004.69;116259;1183;59548;-73
2021/08/30 11:14:55;;;;;;;3.20;2.30;;;;;;;25.82;35.33;97004.66;116315;1178;59558;-79
2021/08/30 11:17:33;;;;;;;2.80;2.30;;;;;;;24.88;37.40;96998.03;116307;1183;71357;-72
2021/08/30 11:20:04;;;;;;;3.60;2.50;;;;;;;24.58;38.31;96996.02;116170;1179;67555;-75
2021/08/30 11:22:33;;;;;;;5.50;2.80;;;;;;;24.50;38.77;96989.59;116254;1183;68455;-74
2021/08/30 11:25:05;;;;;;;3.50;2.60;;;;;;;24.29;39.11;96992.52;116280;1183;60047;-74
2021/08/30 11:27:34;;;;;;;3.80;2.40;;;;;;;23.70;39.07;96991.35;116405;1180;59555;-75
2021/08/30 11:30:09;;;;;;;3.90;2.80;;;;;;;23.28;40.24;96990.80;116269;1183;71131;-74
2021/08/30 11:32:40;;;;;;;3.60;2.80;;;;;;;23.82;39.82;96989.48;116286;1183;68422;-74
2021/08/30 11:35:14;;;;;;;3.20;2.70;;;;;;;24.15;38.93;96995.52;116287;1182;68648;-74
2021/08/30 11:37:43;;;;;;;3.50;2.60;;;;;;;23.91;38.91;96999.23;116304;1182;59543;-73
2021/08/30 11:40:14;;;;;;;3.40;2.90;;;;;;;23.43;39.65;96998.58;116284;1183;59519;-74
2021/08/30 11:42:44;;;;;;;7.40;2.70;;;;;;;23.19;40.37;96997.46;116353;1183;71284;-75
2021/08/30 11:45:13;;;;;;;4.10;2.60;;;;;;;22.89;40.56;96997.80;116266;1179;68636;-74
2021/08/30 11:47:42;;;;;;;5.40;3.10;;;;;;;22.57;41.14;97002.25;116320;1183;69202;-75